sensor_id;sensor_type;location;lat;lon;timestamp;P1;durP1;ratioP1;P2;durP2;ratioP2
20468;SDS011;10393;52.460;13.322;2023-02-03T00:00:48;2.77;;;0.60;;
20468;SDS011;10393;52.460;13.322;2023-02-03T00:02:29;4.73;;;1.00;;
20468;SDS011;10393;52.460;13.322;2023-02-03T00:04:10;1.87;;;0.93;;
20468;SDS011;10393;52.460;13.322;2023-02-03T00:05:52;3.83;;;0.83;;
20468;SDS011;10393;52.460;13.322;2023-02-03T00:07:35;1.17;;;0.77;;
20468;SDS011;10393;52.460;13.322;2023-02-03T00:09:17;0.83;;;0.83;;
20468;SDS011;10393;52.460;13.322;2023-02-03T00:10:59;2.73;;;1.47;;
20468;SDS011;10393;52.460;13.322;2023-02-03T00:12:41;6.57;;;0.57;;
20468;SDS011;10393;52.460;13.322;2023-02-03T00:14:22;0.60;;;0.60;;
20468;SDS011;10393;52.460;13.322;2023-02-03T00:16:04;2.53;;;1.10;;
20468;SDS011;10393;52.460;13.322;2023-02-03T00:17:45;1.53;;;0.77;;
20468;SDS011;10393;52.460;13.322;2023-02-03T00:19:26;3.37;;;0.93;;
20468;SDS011;10393;52.460;13.322;2023-02-03T00:21:08;1.53;;;0.60;;
20468;SDS011;10393;52.460;13.322;2023-02-03T00:22:49;3.80;;;1.30;;
20468;SDS011;10393;52.460;13.322;2023-02-03T00:24:30;1.50;;;0.40;;
20468;SDS011;10393;52.460;13.322;2023-02-03T00:26:12;3.40;;;0.53;;
20468;SDS011;10393;52.460;13.322;2023-02-03T00:27:55;5.20;;;1.07;;
20468;SDS011;10393;52.460;13.322;2023-02-03T00:29:37;6.33;;;0.93;;
20468;SDS011;10393;52.460;13.322;2023-02-03T00:31:22;0.50;;;0.40;;
20468;SDS011;10393;52.460;13.322;2023-02-03T00:33:04;1.07;;;0.50;;
20468;SDS011;10393;52.460;13.322;2023-02-03T00:34:45;1.27;;;0.70;;
20468;SDS011;10393;52.460;13.322;2023-02-03T00:36:26;5.30;;;0.87;;
20468;SDS011;10393;52.460;13.322;2023-02-03T00:38:07;4.10;;;0.87;;
20468;SDS011;10393;52.460;13.322;2023-02-03T00:39:49;6.37;;;0.80;;
20468;SDS011;10393;52.460;13.322;2023-02-03T00:41:30;4.33;;;0.63;;
20468;SDS011;10393;52.460;13.322;2023-02-03T00:43:11;11.00;;;1.37;;
20468;SDS011;10393;52.460;13.322;2023-02-03T00:44:52;1.23;;;0.73;;
20468;SDS011;10393;52.460;13.322;2023-02-03T00:46:34;0.43;;;0.43;;
20468;SDS011;10393;52.460;13.322;2023-02-03T00:48:15;2.37;;;1.37;;
20468;SDS011;10393;52.460;13.322;2023-02-03T00:49:57;1.27;;;0.53;;
20468;SDS011;10393;52.460;13.322;2023-02-03T00:51:38;2.10;;;0.40;;
20468;SDS011;10393;52.460;13.322;2023-02-03T00:53:19;2.60;;;0.83;;
20468;SDS011;10393;52.460;13.322;2023-02-03T00:55:01;3.90;;;0.93;;
20468;SDS011;10393;52.460;13.322;2023-02-03T00:56:42;0.93;;;0.47;;
20468;SDS011;10393;52.460;13.322;2023-02-03T00:58:25;1.60;;;0.97;;
20468;SDS011;10393;52.460;13.322;2023-02-03T01:00:06;2.30;;;0.50;;
20468;SDS011;10393;52.460;13.322;2023-02-03T01:01:49;0.37;;;0.23;;
20468;SDS011;10393;52.460;13.322;2023-02-03T01:03:30;2.60;;;0.70;;
20468;SDS011;10393;52.460;13.322;2023-02-03T01:05:12;9.33;;;0.77;;
20468;SDS011;10393;52.460;13.322;2023-02-03T01:06:53;2.90;;;0.60;;
20468;SDS011;10393;52.460;13.322;2023-02-03T01:08:36;0.30;;;0.20;;
20468;SDS011;10393;52.460;13.322;2023-02-03T01:10:19;2.80;;;0.53;;
20468;SDS011;10393;52.460;13.322;2023-02-03T01:12:00;1.17;;;0.50;;
20468;SDS011;10393;52.460;13.322;2023-02-03T01:13:42;1.33;;;0.67;;
20468;SDS011;10393;52.460;13.322;2023-02-03T01:15:23;2.60;;;1.03;;
20468;SDS011;10393;52.460;13.322;2023-02-03T01:17:05;3.20;;;1.23;;
20468;SDS011;10393;52.460;13.322;2023-02-03T01:18:47;4.70;;;0.87;;
20468;SDS011;10393;52.460;13.322;2023-02-03T01:20:28;4.53;;;1.40;;
20468;SDS011;10393;52.460;13.322;2023-02-03T01:22:11;0.33;;;0.30;;
20468;SDS011;10393;52.460;13.322;2023-02-03T01:23:53;5.67;;;1.10;;
20468;SDS011;10393;52.460;13.322;2023-02-03T01:25:34;1.47;;;0.77;;
20468;SDS011;10393;52.460;13.322;2023-02-03T01:27:16;1.23;;;0.73;;
20468;SDS011;10393;52.460;13.322;2023-02-03T01:28:57;4.50;;;1.27;;
20468;SDS011;10393;52.460;13.322;2023-02-03T01:30:39;2.43;;;0.87;;
20468;SDS011;10393;52.460;13.322;2023-02-03T01:32:20;2.63;;;0.77;;
20468;SDS011;10393;52.460;13.322;2023-02-03T01:34:01;0.90;;;0.50;;
20468;SDS011;10393;52.460;13.322;2023-02-03T01:35:43;3.20;;;1.00;;
20468;SDS011;10393;52.460;13.322;2023-02-03T01:37:24;0.80;;;0.60;;
20468;SDS011;10393;52.460;13.322;2023-02-03T01:39:07;5.93;;;1.27;;
20468;SDS011;10393;52.460;13.322;2023-02-03T01:40:48;1.40;;;1.13;;
20468;SDS011;10393;52.460;13.322;2023-02-03T01:42:31;4.53;;;1.40;;
20468;SDS011;10393;52.460;13.322;2023-02-03T01:44:34;3.53;;;0.87;;
20468;SDS011;10393;52.460;13.322;2023-02-03T01:46:34;6.63;;;1.20;;
20468;SDS011;10393;52.460;13.322;2023-02-03T01:48:17;5.33;;;1.10;;
20468;SDS011;10393;52.460;13.322;2023-02-03T01:51:48;1.33;;;0.90;;
20468;SDS011;10393;52.460;13.322;2023-02-03T01:53:30;2.10;;;0.90;;
20468;SDS011;10393;52.460;13.322;2023-02-03T01:55:15;1.07;;;0.80;;
20468;SDS011;10393;52.460;13.322;2023-02-03T01:57:00;4.90;;;0.93;;
20468;SDS011;10393;52.460;13.322;2023-02-03T01:58:42;0.93;;;0.80;;
20468;SDS011;10393;52.460;13.322;2023-02-03T02:00:26;3.23;;;0.80;;
20468;SDS011;10393;52.460;13.322;2023-02-03T02:02:09;1.57;;;0.87;;
20468;SDS011;10393;52.460;13.322;2023-02-03T02:03:51;5.60;;;1.87;;
20468;SDS011;10393;52.460;13.322;2023-02-03T02:05:35;4.53;;;0.93;;
20468;SDS011;10393;52.460;13.322;2023-02-03T02:07:18;3.17;;;1.53;;
20468;SDS011;10393;52.460;13.322;2023-02-03T02:08:59;8.73;;;2.83;;
20468;SDS011;10393;52.460;13.322;2023-02-03T02:10:41;6.23;;;0.90;;
20468;SDS011;10393;52.460;13.322;2023-02-03T02:12:22;6.50;;;0.90;;
20468;SDS011;10393;52.460;13.322;2023-02-03T02:14:04;4.40;;;1.00;;
20468;SDS011;10393;52.460;13.322;2023-02-03T02:15:56;1.53;;;0.90;;
20468;SDS011;10393;52.460;13.322;2023-02-03T02:27:13;1.07;;;0.70;;
20468;SDS011;10393;52.460;13.322;2023-02-03T02:32:43;0.60;;;0.50;;
20468;SDS011;10393;52.460;13.322;2023-02-03T02:39:55;3.13;;;0.60;;
20468;SDS011;10393;52.460;13.322;2023-02-03T02:41:39;0.50;;;0.50;;
20468;SDS011;10393;52.460;13.322;2023-02-03T02:45:09;3.43;;;0.87;;
20468;SDS011;10393;52.460;13.322;2023-02-03T02:46:53;1.30;;;0.40;;
20468;SDS011;10393;52.460;13.322;2023-02-03T02:48:37;2.37;;;0.93;;
20468;SDS011;10393;52.460;13.322;2023-02-03T02:50:23;0.90;;;0.50;;
20468;SDS011;10393;52.460;13.322;2023-02-03T02:52:07;1.10;;;0.80;;
20468;SDS011;10393;52.460;13.322;2023-02-03T02:53:51;0.93;;;0.43;;
20468;SDS011;10393;52.460;13.322;2023-02-03T02:55:34;0.40;;;0.40;;
20468;SDS011;10393;52.460;13.322;2023-02-03T02:57:20;0.83;;;0.60;;
20468;SDS011;10393;52.460;13.322;2023-02-03T02:59:03;2.77;;;0.80;;
20468;SDS011;10393;52.460;13.322;2023-02-03T03:00:44;1.50;;;0.50;;
20468;SDS011;10393;52.460;13.322;2023-02-03T03:02:32;0.30;;;0.30;;
20468;SDS011;10393;52.460;13.322;2023-02-03T03:04:16;0.27;;;0.20;;
20468;SDS011;10393;52.460;13.322;2023-02-03T03:06:00;0.73;;;0.47;;
20468;SDS011;10393;52.460;13.322;2023-02-03T03:07:47;1.17;;;0.50;;
20468;SDS011;10393;52.460;13.322;2023-02-03T03:09:35;0.20;;;0.20;;
20468;SDS011;10393;52.460;13.322;2023-02-03T03:11:18;2.43;;;0.40;;
20468;SDS011;10393;52.460;13.322;2023-02-03T03:13:02;0.60;;;0.40;;
20468;SDS011;10393;52.460;13.322;2023-02-03T03:14:46;2.03;;;0.50;;
20468;SDS011;10393;52.460;13.322;2023-02-03T03:16:28;0.20;;;0.17;;
20468;SDS011;10393;52.460;13.322;2023-02-03T03:18:18;0.20;;;0.20;;
20468;SDS011;10393;52.460;13.322;2023-02-03T03:20:04;0.73;;;0.30;;
20468;SDS011;10393;52.460;13.322;2023-02-03T03:21:50;0.63;;;0.40;;
20468;SDS011;10393;52.460;13.322;2023-02-03T03:23:34;0.33;;;0.23;;
20468;SDS011;10393;52.460;13.322;2023-02-03T03:25:19;1.87;;;1.23;;
20468;SDS011;10393;52.460;13.322;2023-02-03T03:27:06;0.53;;;0.33;;
20468;SDS011;10393;52.460;13.322;2023-02-03T03:28:51;0.27;;;0.27;;
20468;SDS011;10393;52.460;13.322;2023-02-03T03:30:35;0.77;;;0.60;;
20468;SDS011;10393;52.460;13.322;2023-02-03T03:32:17;0.20;;;0.20;;
20468;SDS011;10393;52.460;13.322;2023-02-03T03:33:58;0.13;;;0.13;;
20468;SDS011;10393;52.460;13.322;2023-02-03T03:37:26;0.80;;;0.20;;
20468;SDS011;10393;52.460;13.322;2023-02-03T03:39:54;1.43;;;0.40;;
20468;SDS011;10393;52.460;13.322;2023-02-03T03:42:03;0.20;;;0.13;;
20468;SDS011;10393;52.460;13.322;2023-02-03T03:43:18;1.97;;;0.40;;
20468;SDS011;10393;52.460;13.322;2023-02-03T03:45:13;0.00;;;0.00;;
20468;SDS011;10393;52.460;13.322;2023-02-03T03:47:00;0.20;;;0.17;;
20468;SDS011;10393;52.460;13.322;2023-02-03T03:48:51;0.27;;;0.27;;
20468;SDS011;10393;52.460;13.322;2023-02-03T03:50:34;0.23;;;0.23;;
20468;SDS011;10393;52.460;13.322;2023-02-03T03:52:18;0.20;;;0.20;;
20468;SDS011;10393;52.460;13.322;2023-02-03T03:54:06;1.80;;;0.40;;
20468;SDS011;10393;52.460;13.322;2023-02-03T03:55:49;0.27;;;0.20;;
20468;SDS011;10393;52.460;13.322;2023-02-03T03:57:45;0.20;;;0.20;;
20468;SDS011;10393;52.460;13.322;2023-02-03T03:59:30;0.20;;;0.20;;
20468;SDS011;10393;52.460;13.322;2023-02-03T04:01:12;0.13;;;0.13;;
20468;SDS011;10393;52.460;13.322;2023-02-03T04:02:55;0.73;;;0.20;;
20468;SDS011;10393;52.460;13.322;2023-02-03T04:04:37;0.33;;;0.20;;
20468;SDS011;10393;52.460;13.322;2023-02-03T04:06:19;0.57;;;0.30;;
20468;SDS011;10393;52.460;13.322;2023-02-03T04:08:00;0.20;;;0.20;;
20468;SDS011;10393;52.460;13.322;2023-02-03T04:09:42;0.20;;;0.20;;
20468;SDS011;10393;52.460;13.322;2023-02-03T04:11:24;0.10;;;0.10;;
20468;SDS011;10393;52.460;13.322;2023-02-03T04:13:23;0.23;;;0.20;;
20468;SDS011;10393;52.460;13.322;2023-02-03T04:15:04;0.87;;;0.43;;
20468;SDS011;10393;52.460;13.322;2023-02-03T04:16:46;0.20;;;0.20;;
20468;SDS011;10393;52.460;13.322;2023-02-03T04:18:27;0.30;;;0.30;;
20468;SDS011;10393;52.460;13.322;2023-02-03T04:20:11;0.27;;;0.27;;
20468;SDS011;10393;52.460;13.322;2023-02-03T04:21:52;0.30;;;0.30;;
20468;SDS011;10393;52.460;13.322;2023-02-03T04:23:33;0.20;;;0.20;;
20468;SDS011;10393;52.460;13.322;2023-02-03T04:25:15;0.53;;;0.40;;
20468;SDS011;10393;52.460;13.322;2023-02-03T04:26:57;0.40;;;0.40;;
20468;SDS011;10393;52.460;13.322;2023-02-03T04:28:38;0.60;;;0.40;;
20468;SDS011;10393;52.460;13.322;2023-02-03T04:30:19;0.87;;;0.60;;
20468;SDS011;10393;52.460;13.322;2023-02-03T04:32:00;0.70;;;0.60;;
20468;SDS011;10393;52.460;13.322;2023-02-03T04:33:41;1.50;;;0.67;;
20468;SDS011;10393;52.460;13.322;2023-02-03T04:35:23;0.37;;;0.37;;
20468;SDS011;10393;52.460;13.322;2023-02-03T04:37:04;0.70;;;0.70;;
20468;SDS011;10393;52.460;13.322;2023-02-03T04:38:45;5.27;;;0.60;;
20468;SDS011;10393;52.460;13.322;2023-02-03T04:40:28;0.90;;;0.73;;
20468;SDS011;10393;52.460;13.322;2023-02-03T04:42:09;0.60;;;0.57;;
20468;SDS011;10393;52.460;13.322;2023-02-03T04:43:50;0.43;;;0.43;;
20468;SDS011;10393;52.460;13.322;2023-02-03T04:45:31;0.80;;;0.50;;
20468;SDS011;10393;52.460;13.322;2023-02-03T04:47:12;0.50;;;0.40;;
20468;SDS011;10393;52.460;13.322;2023-02-03T04:48:53;2.07;;;0.70;;
20468;SDS011;10393;52.460;13.322;2023-02-03T04:50:35;1.90;;;0.90;;
20468;SDS011;10393;52.460;13.322;2023-02-03T04:52:18;1.10;;;0.83;;
20468;SDS011;10393;52.460;13.322;2023-02-03T04:53:59;1.37;;;0.97;;
20468;SDS011;10393;52.460;13.322;2023-02-03T04:55:40;1.90;;;1.27;;
20468;SDS011;10393;52.460;13.322;2023-02-03T04:57:21;3.63;;;1.40;;
20468;SDS011;10393;52.460;13.322;2023-02-03T04:59:02;1.73;;;1.30;;
20468;SDS011;10393;52.460;13.322;2023-02-03T05:00:44;2.63;;;1.03;;
20468;SDS011;10393;52.460;13.322;2023-02-03T05:02:25;1.30;;;1.20;;
20468;SDS011;10393;52.460;13.322;2023-02-03T05:04:06;1.57;;;1.23;;
20468;SDS011;10393;52.460;13.322;2023-02-03T05:05:48;3.40;;;1.90;;
20468;SDS011;10393;52.460;13.322;2023-02-03T05:07:29;1.37;;;1.10;;
20468;SDS011;10393;52.460;13.322;2023-02-03T05:09:10;3.17;;;1.43;;
20468;SDS011;10393;52.460;13.322;2023-02-03T05:10:51;1.87;;;1.67;;
20468;SDS011;10393;52.460;13.322;2023-02-03T05:12:32;2.43;;;1.93;;
20468;SDS011;10393;52.460;13.322;2023-02-03T05:14:13;3.03;;;2.00;;
20468;SDS011;10393;52.460;13.322;2023-02-03T05:15:55;3.20;;;1.70;;
20468;SDS011;10393;52.460;13.322;2023-02-03T05:17:36;3.17;;;2.10;;
20468;SDS011;10393;52.460;13.322;2023-02-03T05:19:19;2.97;;;1.50;;
20468;SDS011;10393;52.460;13.322;2023-02-03T05:21:00;4.03;;;1.90;;
20468;SDS011;10393;52.460;13.322;2023-02-03T05:22:41;4.03;;;2.13;;
20468;SDS011;10393;52.460;13.322;2023-02-03T05:24:22;4.23;;;2.13;;
20468;SDS011;10393;52.460;13.322;2023-02-03T05:26:03;5.00;;;2.73;;
20468;SDS011;10393;52.460;13.322;2023-02-03T05:27:44;3.83;;;2.20;;
20468;SDS011;10393;52.460;13.322;2023-02-03T05:29:26;7.00;;;3.43;;
20468;SDS011;10393;52.460;13.322;2023-02-03T05:31:07;5.97;;;3.80;;
20468;SDS011;10393;52.460;13.322;2023-02-03T05:32:48;6.27;;;3.30;;
20468;SDS011;10393;52.460;13.322;2023-02-03T05:34:29;4.60;;;2.63;;
20468;SDS011;10393;52.460;13.322;2023-02-03T05:36:10;8.97;;;4.37;;
20468;SDS011;10393;52.460;13.322;2023-02-03T05:37:51;5.80;;;3.00;;
20468;SDS011;10393;52.460;13.322;2023-02-03T05:39:33;10.03;;;3.40;;
20468;SDS011;10393;52.460;13.322;2023-02-03T05:41:14;4.60;;;2.80;;
20468;SDS011;10393;52.460;13.322;2023-02-03T05:43:13;4.77;;;3.00;;
20468;SDS011;10393;52.460;13.322;2023-02-03T05:44:55;6.50;;;3.27;;
20468;SDS011;10393;52.460;13.322;2023-02-03T05:46:36;7.40;;;3.63;;
20468;SDS011;10393;52.460;13.322;2023-02-03T05:48:17;6.27;;;3.03;;
20468;SDS011;10393;52.460;13.322;2023-02-03T05:49:58;9.23;;;3.87;;
20468;SDS011;10393;52.460;13.322;2023-02-03T05:51:39;7.10;;;3.93;;
20468;SDS011;10393;52.460;13.322;2023-02-03T05:53:21;9.27;;;3.77;;
20468;SDS011;10393;52.460;13.322;2023-02-03T05:55:02;6.17;;;3.13;;
20468;SDS011;10393;52.460;13.322;2023-02-03T05:56:44;5.00;;;3.40;;
20468;SDS011;10393;52.460;13.322;2023-02-03T05:58:25;35.03;;;13.73;;
20468;SDS011;10393;52.460;13.322;2023-02-03T06:00:06;7.50;;;4.00;;
20468;SDS011;10393;52.460;13.322;2023-02-03T06:01:51;8.80;;;3.93;;
20468;SDS011;10393;52.460;13.322;2023-02-03T06:03:33;6.30;;;3.83;;
20468;SDS011;10393;52.460;13.322;2023-02-03T06:05:14;8.73;;;3.37;;
20468;SDS011;10393;52.460;13.322;2023-02-03T06:06:55;8.90;;;4.47;;
20468;SDS011;10393;52.460;13.322;2023-02-03T06:08:36;9.23;;;4.93;;
20468;SDS011;10393;52.460;13.322;2023-02-03T06:10:17;8.27;;;4.07;;
20468;SDS011;10393;52.460;13.322;2023-02-03T06:11:58;7.43;;;3.77;;
20468;SDS011;10393;52.460;13.322;2023-02-03T06:13:40;7.93;;;4.50;;
20468;SDS011;10393;52.460;13.322;2023-02-03T06:15:21;8.70;;;4.60;;
20468;SDS011;10393;52.460;13.322;2023-02-03T06:17:02;5.63;;;4.03;;
20468;SDS011;10393;52.460;13.322;2023-02-03T06:18:43;6.70;;;4.03;;
20468;SDS011;10393;52.460;13.322;2023-02-03T06:20:24;6.83;;;3.43;;
20468;SDS011;10393;52.460;13.322;2023-02-03T06:22:05;3.80;;;2.90;;
20468;SDS011;10393;52.460;13.322;2023-02-03T06:23:47;7.13;;;3.43;;
20468;SDS011;10393;52.460;13.322;2023-02-03T06:25:28;11.53;;;4.30;;
20468;SDS011;10393;52.460;13.322;2023-02-03T06:27:11;7.40;;;3.13;;
20468;SDS011;10393;52.460;13.322;2023-02-03T06:28:52;8.70;;;4.00;;
20468;SDS011;10393;52.460;13.322;2023-02-03T06:30:34;9.43;;;4.50;;
20468;SDS011;10393;52.460;13.322;2023-02-03T06:32:15;6.53;;;4.13;;
20468;SDS011;10393;52.460;13.322;2023-02-03T06:33:56;7.53;;;3.17;;
20468;SDS011;10393;52.460;13.322;2023-02-03T06:35:38;8.97;;;4.60;;
20468;SDS011;10393;52.460;13.322;2023-02-03T06:37:19;9.87;;;4.27;;
20468;SDS011;10393;52.460;13.322;2023-02-03T06:39:00;11.13;;;4.23;;
20468;SDS011;10393;52.460;13.322;2023-02-03T06:40:44;10.80;;;4.63;;
20468;SDS011;10393;52.460;13.322;2023-02-03T06:42:26;5.47;;;3.00;;
20468;SDS011;10393;52.460;13.322;2023-02-03T06:44:07;5.17;;;3.23;;
20468;SDS011;10393;52.460;13.322;2023-02-03T06:45:48;9.97;;;4.97;;
20468;SDS011;10393;52.460;13.322;2023-02-03T06:47:29;6.93;;;3.93;;
20468;SDS011;10393;52.460;13.322;2023-02-03T06:49:10;9.17;;;4.23;;
20468;SDS011;10393;52.460;13.322;2023-02-03T06:50:51;10.97;;;3.87;;
20468;SDS011;10393;52.460;13.322;2023-02-03T06:52:33;10.53;;;3.93;;
20468;SDS011;10393;52.460;13.322;2023-02-03T06:54:14;6.87;;;3.53;;
20468;SDS011;10393;52.460;13.322;2023-02-03T06:55:55;8.93;;;4.20;;
20468;SDS011;10393;52.460;13.322;2023-02-03T06:57:43;7.37;;;4.00;;
20468;SDS011;10393;52.460;13.322;2023-02-03T06:59:24;7.23;;;3.20;;
20468;SDS011;10393;52.460;13.322;2023-02-03T07:01:05;13.43;;;4.40;;
20468;SDS011;10393;52.460;13.322;2023-02-03T07:02:53;10.90;;;3.87;;
20468;SDS011;10393;52.460;13.322;2023-02-03T07:04:34;6.33;;;3.67;;
20468;SDS011;10393;52.460;13.322;2023-02-03T07:06:17;6.13;;;2.90;;
20468;SDS011;10393;52.460;13.322;2023-02-03T07:07:59;7.47;;;4.13;;
20468;SDS011;10393;52.460;13.322;2023-02-03T07:09:40;9.07;;;3.40;;
20468;SDS011;10393;52.460;13.322;2023-02-03T07:11:21;12.43;;;2.90;;
20468;SDS011;10393;52.460;13.322;2023-02-03T07:13:06;9.50;;;4.07;;
20468;SDS011;10393;52.460;13.322;2023-02-03T07:14:47;6.63;;;3.73;;
20468;SDS011;10393;52.460;13.322;2023-02-03T07:16:28;6.63;;;3.40;;
20468;SDS011;10393;52.460;13.322;2023-02-03T07:18:10;8.23;;;3.87;;
20468;SDS011;10393;52.460;13.322;2023-02-03T07:19:51;5.53;;;3.10;;
20468;SDS011;10393;52.460;13.322;2023-02-03T07:21:32;8.00;;;4.53;;
20468;SDS011;10393;52.460;13.322;2023-02-03T07:23:14;8.80;;;4.27;;
20468;SDS011;10393;52.460;13.322;2023-02-03T07:24:55;14.30;;;3.73;;
20468;SDS011;10393;52.460;13.322;2023-02-03T07:26:36;10.13;;;3.03;;
20468;SDS011;10393;52.460;13.322;2023-02-03T07:28:18;16.23;;;3.67;;
20468;SDS011;10393;52.460;13.322;2023-02-03T07:29:59;8.77;;;4.17;;
20468;SDS011;10393;52.460;13.322;2023-02-03T07:31:40;8.03;;;3.47;;
20468;SDS011;10393;52.460;13.322;2023-02-03T07:33:22;4.13;;;2.53;;
20468;SDS011;10393;52.460;13.322;2023-02-03T07:35:03;6.37;;;4.10;;
20468;SDS011;10393;52.460;13.322;2023-02-03T07:36:44;11.40;;;3.73;;
20468;SDS011;10393;52.460;13.322;2023-02-03T07:38:26;5.10;;;2.87;;
20468;SDS011;10393;52.460;13.322;2023-02-03T07:40:08;6.23;;;2.53;;
20468;SDS011;10393;52.460;13.322;2023-02-03T07:41:49;8.37;;;2.93;;
20468;SDS011;10393;52.460;13.322;2023-02-03T07:43:35;11.93;;;4.07;;
20468;SDS011;10393;52.460;13.322;2023-02-03T07:45:18;6.13;;;2.90;;
20468;SDS011;10393;52.460;13.322;2023-02-03T07:47:01;7.33;;;2.30;;
20468;SDS011;10393;52.460;13.322;2023-02-03T07:48:42;6.03;;;3.60;;
20468;SDS011;10393;52.460;13.322;2023-02-03T07:50:23;3.97;;;2.77;;
20468;SDS011;10393;52.460;13.322;2023-02-03T07:52:04;3.33;;;2.50;;
20468;SDS011;10393;52.460;13.322;2023-02-03T07:53:45;7.27;;;2.20;;
20468;SDS011;10393;52.460;13.322;2023-02-03T07:55:27;3.60;;;2.80;;
20468;SDS011;10393;52.460;13.322;2023-02-03T07:57:08;6.57;;;3.07;;
20468;SDS011;10393;52.460;13.322;2023-02-03T07:58:51;8.40;;;2.50;;
20468;SDS011;10393;52.460;13.322;2023-02-03T08:00:34;3.47;;;2.30;;
20468;SDS011;10393;52.460;13.322;2023-02-03T08:02:16;4.43;;;2.70;;
20468;SDS011;10393;52.460;13.322;2023-02-03T08:03:57;4.40;;;1.83;;
20468;SDS011;10393;52.460;13.322;2023-02-03T08:05:41;4.37;;;2.33;;
20468;SDS011;10393;52.460;13.322;2023-02-03T08:07:22;3.67;;;2.20;;
20468;SDS011;10393;52.460;13.322;2023-02-03T08:09:03;3.27;;;1.93;;
20468;SDS011;10393;52.460;13.322;2023-02-03T08:10:44;3.23;;;1.97;;
20468;SDS011;10393;52.460;13.322;2023-02-03T08:12:25;2.77;;;2.20;;
20468;SDS011;10393;52.460;13.322;2023-02-03T08:14:06;2.40;;;2.20;;
20468;SDS011;10393;52.460;13.322;2023-02-03T08:15:47;2.67;;;1.93;;
20468;SDS011;10393;52.460;13.322;2023-02-03T08:17:29;2.13;;;1.60;;
20468;SDS011;10393;52.460;13.322;2023-02-03T08:19:10;2.03;;;1.77;;
20468;SDS011;10393;52.460;13.322;2023-02-03T08:20:51;3.17;;;2.60;;
20468;SDS011;10393;52.460;13.322;2023-02-03T08:22:32;9.13;;;2.67;;
20468;SDS011;10393;52.460;13.322;2023-02-03T08:24:14;3.90;;;1.70;;
20468;SDS011;10393;52.460;13.322;2023-02-03T08:25:55;1.80;;;1.43;;
20468;SDS011;10393;52.460;13.322;2023-02-03T08:27:36;3.00;;;2.00;;
20468;SDS011;10393;52.460;13.322;2023-02-03T08:29:18;1.67;;;1.40;;
20468;SDS011;10393;52.460;13.322;2023-02-03T08:30:59;8.43;;;1.97;;
20468;SDS011;10393;52.460;13.322;2023-02-03T08:32:40;3.43;;;2.03;;
20468;SDS011;10393;52.460;13.322;2023-02-03T08:34:21;1.77;;;1.27;;
20468;SDS011;10393;52.460;13.322;2023-02-03T08:36:03;1.70;;;1.50;;
20468;SDS011;10393;52.460;13.322;2023-02-03T08:37:45;3.60;;;1.67;;
20468;SDS011;10393;52.460;13.322;2023-02-03T08:39:26;5.33;;;1.77;;
20468;SDS011;10393;52.460;13.322;2023-02-03T08:41:08;1.80;;;1.40;;
20468;SDS011;10393;52.460;13.322;2023-02-03T08:42:49;1.70;;;1.50;;
20468;SDS011;10393;52.460;13.322;2023-02-03T08:44:31;3.97;;;1.60;;
20468;SDS011;10393;52.460;13.322;2023-02-03T08:46:12;5.00;;;1.67;;
20468;SDS011;10393;52.460;13.322;2023-02-03T08:47:53;3.10;;;1.87;;
20468;SDS011;10393;52.460;13.322;2023-02-03T08:49:34;1.53;;;1.10;;
20468;SDS011;10393;52.460;13.322;2023-02-03T08:51:18;3.10;;;2.20;;
20468;SDS011;10393;52.460;13.322;2023-02-03T08:52:59;2.20;;;1.53;;
20468;SDS011;10393;52.460;13.322;2023-02-03T08:54:40;1.90;;;1.40;;
20468;SDS011;10393;52.460;13.322;2023-02-03T08:56:22;1.27;;;1.13;;
20468;SDS011;10393;52.460;13.322;2023-02-03T08:58:05;5.93;;;1.40;;
20468;SDS011;10393;52.460;13.322;2023-02-03T08:59:46;4.67;;;1.30;;
20468;SDS011;10393;52.460;13.322;2023-02-03T09:01:30;2.97;;;1.27;;
20468;SDS011;10393;52.460;13.322;2023-02-03T09:03:11;4.27;;;1.03;;
20468;SDS011;10393;52.460;13.322;2023-02-03T09:04:52;4.43;;;1.60;;
20468;SDS011;10393;52.460;13.322;2023-02-03T09:06:34;4.27;;;1.80;;
20468;SDS011;10393;52.460;13.322;2023-02-03T09:08:15;1.63;;;1.00;;
20468;SDS011;10393;52.460;13.322;2023-02-03T09:09:56;4.87;;;1.73;;
20468;SDS011;10393;52.460;13.322;2023-02-03T09:11:39;1.80;;;1.37;;
20468;SDS011;10393;52.460;13.322;2023-02-03T09:13:20;1.30;;;1.13;;
20468;SDS011;10393;52.460;13.322;2023-02-03T09:15:01;1.83;;;1.10;;
20468;SDS011;10393;52.460;13.322;2023-02-03T09:16:42;1.63;;;1.20;;
20468;SDS011;10393;52.460;13.322;2023-02-03T09:18:24;1.20;;;1.10;;
20468;SDS011;10393;52.460;13.322;2023-02-03T09:20:05;2.57;;;1.03;;
20468;SDS011;10393;52.460;13.322;2023-02-03T09:21:46;2.40;;;1.20;;
20468;SDS011;10393;52.460;13.322;2023-02-03T09:23:30;3.50;;;0.90;;
20468;SDS011;10393;52.460;13.322;2023-02-03T09:25:11;1.57;;;1.00;;
20468;SDS011;10393;52.460;13.322;2023-02-03T09:26:55;3.30;;;1.20;;
20468;SDS011;10393;52.460;13.322;2023-02-03T09:28:36;1.53;;;1.40;;
20468;SDS011;10393;52.460;13.322;2023-02-03T09:30:18;2.93;;;1.00;;
20468;SDS011;10393;52.460;13.322;2023-02-03T09:31:59;2.63;;;0.73;;
20468;SDS011;10393;52.460;13.322;2023-02-03T09:33:46;2.30;;;1.00;;
20468;SDS011;10393;52.460;13.322;2023-02-03T09:35:27;1.63;;;0.70;;
20468;SDS011;10393;52.460;13.322;2023-02-03T09:37:09;1.90;;;0.67;;
20468;SDS011;10393;52.460;13.322;2023-02-03T09:38:50;1.43;;;0.87;;
20468;SDS011;10393;52.460;13.322;2023-02-03T09:40:32;1.27;;;1.17;;
20468;SDS011;10393;52.460;13.322;2023-02-03T09:46:06;1.20;;;0.87;;
20468;SDS011;10393;52.460;13.322;2023-02-03T09:47:48;0.83;;;0.53;;
20468;SDS011;10393;52.460;13.322;2023-02-03T09:50:07;2.10;;;1.03;;
20468;SDS011;10393;52.460;13.322;2023-02-03T09:51:42;0.80;;;0.80;;
20468;SDS011;10393;52.460;13.322;2023-02-03T09:53:35;3.83;;;0.93;;
20468;SDS011;10393;52.460;13.322;2023-02-03T09:57:01;1.10;;;1.00;;
20468;SDS011;10393;52.460;13.322;2023-02-03T09:58:45;0.60;;;0.60;;
20468;SDS011;10393;52.460;13.322;2023-02-03T10:00:27;0.90;;;0.60;;
20468;SDS011;10393;52.460;13.322;2023-02-03T10:04:01;0.80;;;0.80;;
20468;SDS011;10393;52.460;13.322;2023-02-03T10:09:38;1.10;;;0.80;;
20468;SDS011;10393;52.460;13.322;2023-02-03T10:13:17;1.90;;;1.03;;
20468;SDS011;10393;52.460;13.322;2023-02-03T10:18:44;0.50;;;0.50;;
20468;SDS011;10393;52.460;13.322;2023-02-03T10:20:38;1.13;;;0.70;;
20468;SDS011;10393;52.460;13.322;2023-02-03T10:22:21;0.80;;;0.70;;
20468;SDS011;10393;52.460;13.322;2023-02-03T10:24:14;1.60;;;0.50;;
20468;SDS011;10393;52.460;13.322;2023-02-03T10:25:57;2.55;;;1.17;;
20468;SDS011;10393;52.460;13.322;2023-02-03T10:27:39;0.30;;;0.30;;
20468;SDS011;10393;52.460;13.322;2023-02-03T10:31:16;0.37;;;0.37;;
20468;SDS011;10393;52.460;13.322;2023-02-03T10:33:01;1.07;;;0.50;;
20468;SDS011;10393;52.460;13.322;2023-02-03T10:34:48;2.30;;;0.90;;
20468;SDS011;10393;52.460;13.322;2023-02-03T10:38:16;1.67;;;0.60;;
20468;SDS011;10393;52.460;13.322;2023-02-03T10:39:59;0.70;;;0.70;;
20468;SDS011;10393;52.460;13.322;2023-02-03T10:41:41;2.43;;;0.87;;
20468;SDS011;10393;52.460;13.322;2023-02-03T10:43:22;4.97;;;0.50;;
20468;SDS011;10393;52.460;13.322;2023-02-03T10:45:22;0.70;;;0.47;;
20468;SDS011;10393;52.460;13.322;2023-02-03T10:47:10;2.87;;;0.33;;
20468;SDS011;10393;52.460;13.322;2023-02-03T10:48:55;0.43;;;0.30;;
20468;SDS011;10393;52.460;13.322;2023-02-03T10:50:37;3.10;;;0.70;;
20468;SDS011;10393;52.460;13.322;2023-02-03T10:52:29;1.77;;;0.27;;
20468;SDS011;10393;52.460;13.322;2023-02-03T10:56:10;0.60;;;0.37;;